createdAt,value
2023-03-15T00:02:10.564Z,4.03
2023-03-15T00:04:38.024Z,3.47
2023-03-15T00:07:05.629Z,3.80
2023-03-15T00:09:33.070Z,3.53
2023-03-15T00:12:03.068Z,3.30
2023-03-15T00:14:31.798Z,3.47
2023-03-15T00:16:59.272Z,3.50
2023-03-15T00:19:26.696Z,3.30
2023-03-15T00:21:54.259Z,3.40
2023-03-15T00:24:24.029Z,3.37
2023-03-15T00:26:52.513Z,3.00
2023-03-15T00:29:20.081Z,2.93
2023-03-15T00:31:47.471Z,2.93
2023-03-15T00:34:15.368Z,2.93
2023-03-15T00:36:43.805Z,3.10
2023-03-15T00:39:11.906Z,2.83
2023-03-15T00:41:39.312Z,3.00
2023-03-15T00:44:06.754Z,2.80
2023-03-15T00:46:34.241Z,2.90
2023-03-15T00:49:01.792Z,2.77
2023-03-15T00:51:30.545Z,2.63
2023-03-15T00:53:57.945Z,2.50
2023-03-15T00:56:30.189Z,2.53
2023-03-15T00:58:59.807Z,2.60
2023-03-15T01:01:30.028Z,2.30
2023-03-15T01:03:58.221Z,2.30
2023-03-15T01:06:28.669Z,2.77
2023-03-15T01:09:06.933Z,2.43
2023-03-15T01:11:37.520Z,2.37
2023-03-15T01:14:06.369Z,2.13
2023-03-15T01:16:33.819Z,2.20
2023-03-15T01:19:01.299Z,2.13
2023-03-15T01:21:28.785Z,2.60
2023-03-15T01:23:56.462Z,2.43
2023-03-15T01:26:24.391Z,1.80
2023-03-15T01:28:52.119Z,1.70
2023-03-15T01:31:28.031Z,1.73
2023-03-15T01:33:55.550Z,2.07
2023-03-15T01:36:23.588Z,1.80
2023-03-15T01:38:51.422Z,1.93
2023-03-15T01:41:20.020Z,1.90
2023-03-15T01:43:47.729Z,1.93
2023-03-15T01:46:35.110Z,2.00
2023-03-15T01:49:16.359Z,1.70
2023-03-15T01:52:02.273Z,1.50
2023-03-15T01:54:59.711Z,1.90
2023-03-15T01:57:47.715Z,1.70
2023-03-15T02:00:19.273Z,1.77
2023-03-15T02:02:59.763Z,1.73
2023-03-15T02:05:36.138Z,1.50
2023-03-15T02:08:07.732Z,1.80
2023-03-15T02:10:45.032Z,1.70
2023-03-15T02:13:17.362Z,1.40
2023-03-15T02:15:47.165Z,1.60
2023-03-15T02:18:15.793Z,1.70
2023-03-15T02:20:54.088Z,1.70
2023-03-15T02:23:23.880Z,1.97
2023-03-15T02:26:28.737Z,1.60
2023-03-15T02:28:56.599Z,1.97
2023-03-15T02:31:24.126Z,1.50
2023-03-15T02:33:55.726Z,1.60
2023-03-15T02:36:32.192Z,1.43
2023-03-15T02:39:00.270Z,1.67
2023-03-15T02:41:42.685Z,1.70
2023-03-15T02:44:34.870Z,1.50
2023-03-15T02:47:11.827Z,1.30
2023-03-15T02:49:44.228Z,1.23
2023-03-15T02:52:14.128Z,1.67
2023-03-15T02:54:43.800Z,1.57
2023-03-15T02:57:17.461Z,1.53
2023-03-15T02:59:44.956Z,1.80
2023-03-15T03:02:13.425Z,1.50
2023-03-15T03:04:41.789Z,1.50
2023-03-15T03:07:09.549Z,1.47
2023-03-15T03:09:37.031Z,1.90
2023-03-15T03:12:05.067Z,1.50
2023-03-15T03:14:32.507Z,1.47
2023-03-15T03:17:00.006Z,1.50
2023-03-15T03:19:27.510Z,1.57
2023-03-15T03:21:55.480Z,1.80
2023-03-15T03:24:25.960Z,1.50
2023-03-15T03:26:58.071Z,1.63
2023-03-15T03:29:27.199Z,1.50
2023-03-15T03:31:55.092Z,1.33
2023-03-15T03:34:22.904Z,1.40
2023-03-15T03:36:50.445Z,1.40
2023-03-15T03:39:17.871Z,1.70
2023-03-15T03:41:45.340Z,1.80
2023-03-15T03:44:14.652Z,1.60
2023-03-15T03:46:42.423Z,1.50
2023-03-15T03:49:09.966Z,1.70
2023-03-15T03:51:37.961Z,1.47
2023-03-15T03:54:05.635Z,1.43
2023-03-15T03:56:33.198Z,1.23
2023-03-15T03:59:00.694Z,1.60
2023-03-15T04:01:28.091Z,1.40
2023-03-15T04:03:55.548Z,1.30
2023-03-15T04:06:23.397Z,1.70
2023-03-15T04:08:50.970Z,1.50
2023-03-15T04:11:18.430Z,1.70
2023-03-15T04:13:45.930Z,1.70
2023-03-15T04:16:14.813Z,1.40
2023-03-15T04:18:42.473Z,1.60
2023-03-15T04:21:11.180Z,1.77
2023-03-15T04:23:39.020Z,1.50
2023-03-15T04:26:06.777Z,1.60
2023-03-15T04:28:34.387Z,1.80
2023-03-15T04:31:01.900Z,1.40
2023-03-15T04:33:29.779Z,1.60
2023-03-15T04:35:57.902Z,1.53
2023-03-15T04:38:27.054Z,1.67
2023-03-15T04:40:55.358Z,1.57
2023-03-15T04:43:24.603Z,1.53
2023-03-15T04:45:52.260Z,1.47
2023-03-15T04:48:19.889Z,1.60
2023-03-15T04:50:47.365Z,1.50
2023-03-15T04:53:14.824Z,1.80
2023-03-15T04:55:42.227Z,1.80
2023-03-15T04:58:09.689Z,1.57
2023-03-15T05:00:37.179Z,1.73
2023-03-15T05:03:04.802Z,1.83
2023-03-15T05:05:34.055Z,1.70
2023-03-15T05:08:01.763Z,1.80
2023-03-15T05:10:30.461Z,1.63
2023-03-15T05:12:57.895Z,2.13
2023-03-15T05:15:25.442Z,1.80
2023-03-15T05:17:55.289Z,1.80
2023-03-15T05:20:23.400Z,1.80
2023-03-15T05:22:53.361Z,1.70
2023-03-15T05:25:21.365Z,1.70
2023-03-15T05:27:48.950Z,1.50
2023-03-15T05:30:16.831Z,1.50
2023-03-15T05:32:45.093Z,1.67
2023-03-15T05:35:13.332Z,1.77
2023-03-15T05:37:40.958Z,1.50
2023-03-15T05:40:10.042Z,1.50
2023-03-15T05:42:37.837Z,1.33
2023-03-15T05:45:05.999Z,2.17
2023-03-15T05:47:34.161Z,1.63
2023-03-15T05:50:01.730Z,1.70
2023-03-15T05:52:29.290Z,1.27
2023-03-15T05:54:56.722Z,1.73
2023-03-15T05:57:24.188Z,1.57
2023-03-15T05:59:54.086Z,1.60
2023-03-15T06:02:22.141Z,1.60
2023-03-15T06:04:49.701Z,1.60
2023-03-15T06:07:17.207Z,1.57
2023-03-15T06:09:44.708Z,1.60
2023-03-15T06:12:12.348Z,1.73
2023-03-15T06:14:39.817Z,1.53
2023-03-15T06:17:07.384Z,1.53
2023-03-15T06:19:36.801Z,1.93
2023-03-15T06:22:05.285Z,1.80
2023-03-15T06:24:32.962Z,1.87
2023-03-15T06:27:00.954Z,1.80
2023-03-15T06:29:28.694Z,1.60
2023-03-15T06:31:56.187Z,2.13
2023-03-15T06:34:23.582Z,2.07
2023-03-15T06:36:52.701Z,2.00
2023-03-15T06:39:20.353Z,1.50
2023-03-15T06:41:47.805Z,1.67
2023-03-15T06:44:15.395Z,1.80
2023-03-15T06:46:42.883Z,1.83
2023-03-15T06:49:10.453Z,1.50
2023-03-15T06:51:38.741Z,1.67
2023-03-15T06:54:06.320Z,1.80
2023-03-15T06:56:37.474Z,1.50
2023-03-15T06:59:05.512Z,1.80
2023-03-15T07:01:33.244Z,1.60
2023-03-15T07:04:01.318Z,1.90
2023-03-15T07:06:29.547Z,1.60
2023-03-15T07:08:57.106Z,1.50
2023-03-15T07:11:24.796Z,1.70
2023-03-15T07:13:52.336Z,2.10
2023-03-15T07:16:19.934Z,1.60
2023-03-15T07:18:47.455Z,1.67
2023-03-15T07:21:14.897Z,1.70
2023-03-15T07:23:42.538Z,1.90
2023-03-15T07:26:09.977Z,1.93
2023-03-15T07:28:37.379Z,1.50
2023-03-15T07:31:06.574Z,1.97
2023-03-15T07:33:36.769Z,1.60
2023-03-15T07:36:06.204Z,1.50
2023-03-15T07:38:35.336Z,1.57
2023-03-15T07:41:05.578Z,1.50
2023-03-15T07:43:34.779Z,1.70
2023-03-15T07:46:02.733Z,1.90
2023-03-15T07:48:31.133Z,1.70
2023-03-15T07:50:58.647Z,1.67
2023-03-15T07:53:26.594Z,1.40
2023-03-15T07:55:54.604Z,1.57
2023-03-15T07:58:22.064Z,1.57
2023-03-15T08:00:49.525Z,1.63
2023-03-15T08:03:17.572Z,1.70
2023-03-15T08:05:45.129Z,1.30
2023-03-15T08:08:12.580Z,1.80
2023-03-15T08:10:40.221Z,1.60
2023-03-15T08:13:07.822Z,1.50
2023-03-15T08:15:35.388Z,1.80
2023-03-15T08:18:05.220Z,1.57
2023-03-15T08:20:37.001Z,1.40
2023-03-15T08:23:04.499Z,1.90
2023-03-15T08:25:32.066Z,3.07
2023-03-15T08:27:59.538Z,1.50
2023-03-15T08:30:27.158Z,1.73
2023-03-15T08:32:54.830Z,1.50
2023-03-15T08:35:23.056Z,1.10
2023-03-15T08:37:52.834Z,1.27
2023-03-15T08:40:24.748Z,1.33
2023-03-15T08:42:54.045Z,1.50
2023-03-15T08:45:24.370Z,1.33
2023-03-15T08:47:59.718Z,1.50
2023-03-15T08:50:28.657Z,1.20
2023-03-15T08:52:56.194Z,1.50
2023-03-15T08:55:24.204Z,1.70
2023-03-15T08:57:51.784Z,1.77
2023-03-15T09:00:23.361Z,1.40
2023-03-15T09:02:54.547Z,1.33
2023-03-15T09:05:25.329Z,1.37
2023-03-15T09:07:53.353Z,1.63
2023-03-15T09:10:22.376Z,1.60
2023-03-15T09:12:54.037Z,1.50
2023-03-15T09:15:22.001Z,1.30
2023-03-15T09:17:51.894Z,1.33
2023-03-15T09:20:22.180Z,1.47
2023-03-15T09:22:56.130Z,1.23
2023-03-15T09:25:25.020Z,1.70
2023-03-15T09:27:52.974Z,1.40
2023-03-15T09:30:21.182Z,1.70
2023-03-15T09:32:49.044Z,1.70
2023-03-15T09:35:20.582Z,2.13
2023-03-15T09:37:50.546Z,1.43
2023-03-15T09:40:32.703Z,1.60
2023-03-15T09:43:09.277Z,1.40
2023-03-15T09:45:58.213Z,1.80
2023-03-15T09:48:33.439Z,2.07
2023-03-15T09:51:23.223Z,1.97
2023-03-15T09:54:01.030Z,1.50
2023-03-15T09:56:45.803Z,1.33
2023-03-15T09:59:17.806Z,1.47
2023-03-15T10:01:48.323Z,1.30
2023-03-15T10:04:42.461Z,1.40
2023-03-15T10:07:15.655Z,1.40
2023-03-15T10:09:43.808Z,1.47
2023-03-15T10:12:19.838Z,1.50
2023-03-15T10:15:21.490Z,1.40
2023-03-15T10:18:13.340Z,1.43
2023-03-15T10:20:52.173Z,1.70
2023-03-15T10:23:33.687Z,1.40
2023-03-15T10:26:02.168Z,1.40
2023-03-15T10:28:37.858Z,1.30
2023-03-15T10:31:22.375Z,1.37
2023-03-15T10:33:58.157Z,1.30
2023-03-15T10:36:26.380Z,1.00
2023-03-15T10:38:53.934Z,1.80
2023-03-15T10:41:51.465Z,1.60
2023-03-15T10:44:24.564Z,2.03
2023-03-15T10:47:21.982Z,1.30
2023-03-15T10:49:51.043Z,1.97
2023-03-15T10:52:37.482Z,1.37
2023-03-15T10:55:21.449Z,1.40
2023-03-15T10:58:00.165Z,1.20
2023-03-15T11:00:36.556Z,1.33
2023-03-15T11:03:24.890Z,1.00
2023-03-15T11:05:59.906Z,1.30
2023-03-15T11:08:42.268Z,1.10
2023-03-15T11:11:10.801Z,1.10
2023-03-15T11:13:40.649Z,1.00
2023-03-15T11:16:14.139Z,1.53
2023-03-15T11:19:18.396Z,1.57
2023-03-15T11:21:46.640Z,1.60
2023-03-15T11:24:30.456Z,1.90
2023-03-15T11:27:06.452Z,1.40
2023-03-15T11:29:38.685Z,2.03
2023-03-15T11:32:29.568Z,1.63
2023-03-15T11:35:15.094Z,1.23
2023-03-15T11:38:14.582Z,1.20
2023-03-15T11:40:54.107Z,1.43
2023-03-15T11:43:26.382Z,1.53
2023-03-15T11:46:17.756Z,1.30
2023-03-15T11:48:53.541Z,1.60
2023-03-15T11:51:21.083Z,1.20
2023-03-15T11:54:07.965Z,1.10
2023-03-15T11:56:44.323Z,1.43
2023-03-15T11:59:21.445Z,1.27
2023-03-15T12:01:59.829Z,1.10
2023-03-15T12:04:33.384Z,1.10
2023-03-15T12:07:09.447Z,1.83
2023-03-15T12:09:49.549Z,1.20
2023-03-15T12:12:25.847Z,1.30
2023-03-15T12:15:07.335Z,1.30
2023-03-15T12:17:56.689Z,1.20
2023-03-15T12:20:43.069Z,1.20
2023-03-15T12:23:18.586Z,1.23
2023-03-15T12:25:54.944Z,1.20
2023-03-15T12:28:51.230Z,1.40
2023-03-15T12:31:19.176Z,1.17
2023-03-15T12:33:54.430Z,4.97
2023-03-15T12:36:46.257Z,1.43
2023-03-15T12:39:16.680Z,1.40
2023-03-15T12:41:50.482Z,1.47
2023-03-15T12:44:33.073Z,1.33
2023-03-15T12:47:05.653Z,1.53
2023-03-15T12:49:36.070Z,2.40
2023-03-15T12:52:13.745Z,2.00
2023-03-15T12:54:58.662Z,4.00
2023-03-15T12:57:37.995Z,1.40
2023-03-15T13:00:20.665Z,1.13
2023-03-15T13:02:55.070Z,1.90
2023-03-15T13:05:36.480Z,1.17
2023-03-15T13:08:18.138Z,0.87
2023-03-15T13:11:00.455Z,0.80
2023-03-15T13:13:45.233Z,0.90
2023-03-15T13:16:31.144Z,1.10
2023-03-15T13:19:23.200Z,1.23
2023-03-15T13:22:18.525Z,1.20
2023-03-15T13:25:22.382Z,1.20
2023-03-15T13:28:25.476Z,1.10
2023-03-15T13:30:55.862Z,1.33
2023-03-15T13:33:30.148Z,1.50
2023-03-15T13:36:03.437Z,2.00
2023-03-15T13:38:50.925Z,2.43
2023-03-15T13:41:28.226Z,2.40
2023-03-15T13:43:59.309Z,2.00
2023-03-15T13:46:31.080Z,2.13
2023-03-15T13:49:01.644Z,2.07
2023-03-15T13:51:35.830Z,2.30
2023-03-15T13:54:30.723Z,1.70
2023-03-15T13:57:20.080Z,2.47
2023-03-15T14:00:10.653Z,1.90
2023-03-15T14:02:46.674Z,1.70
2023-03-15T14:05:27.457Z,1.77
2023-03-15T14:08:07.029Z,2.10
2023-03-15T14:10:40.114Z,1.50
2023-03-15T14:13:35.531Z,1.47
2023-03-15T14:16:15.857Z,2.73
2023-03-15T14:18:43.602Z,2.20
2023-03-15T14:21:20.686Z,2.27
2023-03-15T14:23:49.885Z,2.50
2023-03-15T14:26:18.980Z,3.40
2023-03-15T14:29:05.755Z,2.80
2023-03-15T14:31:41.077Z,2.30
2023-03-15T14:34:37.435Z,2.20
2023-03-15T14:37:38.495Z,2.80
2023-03-15T14:40:29.995Z,2.10
2023-03-15T14:42:57.429Z,2.93
2023-03-15T14:45:24.906Z,2.20
2023-03-15T14:47:58.041Z,2.00
2023-03-15T14:50:31.123Z,2.20
2023-03-15T14:52:59.347Z,3.73
2023-03-15T14:55:35.146Z,2.60
2023-03-15T14:58:15.963Z,3.40
2023-03-15T15:00:46.811Z,1.60
2023-03-15T15:03:41.052Z,1.40
2023-03-15T15:06:12.396Z,1.60
2023-03-15T15:08:42.339Z,1.60
2023-03-15T15:11:09.939Z,1.80
2023-03-15T15:13:39.011Z,1.67
2023-03-15T15:16:07.758Z,1.50
2023-03-15T15:18:37.326Z,1.50
2023-03-15T15:21:27.630Z,1.60
2023-03-15T15:23:58.805Z,2.03
2023-03-15T15:26:30.712Z,2.57
2023-03-15T15:28:59.443Z,3.57
2023-03-15T15:31:29.206Z,2.50
2023-03-15T15:33:57.483Z,2.33
2023-03-15T15:36:35.184Z,1.57
2023-03-15T15:39:06.742Z,1.20
2023-03-15T15:41:35.374Z,1.83
2023-03-15T15:44:02.936Z,1.53
2023-03-15T15:46:30.515Z,1.53
2023-03-15T15:48:58.971Z,1.67
2023-03-15T15:51:31.939Z,1.43
2023-03-15T15:54:01.833Z,1.90
2023-03-15T15:56:44.385Z,1.87
2023-03-15T15:59:15.399Z,2.00
2023-03-15T16:01:59.028Z,1.80
2023-03-15T16:04:28.535Z,1.87
2023-03-15T16:07:05.267Z,1.80
2023-03-15T16:09:37.740Z,1.93
2023-03-15T16:12:13.872Z,1.93
2023-03-15T16:14:42.369Z,1.67
2023-03-15T16:17:13.677Z,1.80
2023-03-15T16:19:41.162Z,2.27
2023-03-15T16:22:08.950Z,2.10
2023-03-15T16:24:39.325Z,1.70
2023-03-15T16:27:08.614Z,1.70
2023-03-15T16:29:44.719Z,1.90
2023-03-15T16:32:32.947Z,1.67
2023-03-15T16:35:15.946Z,1.90
2023-03-15T16:37:44.883Z,1.77
2023-03-15T16:40:26.889Z,1.90
2023-03-15T16:42:55.296Z,1.77
2023-03-15T16:45:23.650Z,1.77
2023-03-15T16:47:51.865Z,1.80
2023-03-15T16:50:19.721Z,1.70
2023-03-15T16:52:51.492Z,2.00
2023-03-15T16:55:28.074Z,2.10
2023-03-15T16:57:56.379Z,2.20
2023-03-15T17:00:25.752Z,2.17
2023-03-15T17:02:54.236Z,2.50
2023-03-15T17:05:24.436Z,2.13
2023-03-15T17:07:54.381Z,3.23
2023-03-15T17:10:29.417Z,2.40
2023-03-15T17:13:00.353Z,2.50
2023-03-15T17:15:28.836Z,2.40
2023-03-15T17:17:59.242Z,2.90
2023-03-15T17:20:28.620Z,2.23
2023-03-15T17:23:05.002Z,2.20
2023-03-15T17:25:33.954Z,2.40
2023-03-15T17:28:01.756Z,2.57
2023-03-15T17:30:37.164Z,3.10
2023-03-15T17:33:05.600Z,2.77
2023-03-15T17:35:38.829Z,2.60
2023-03-15T17:38:15.392Z,2.70
2023-03-15T17:40:43.347Z,2.80
2023-03-15T17:43:16.244Z,2.60
2023-03-15T17:45:44.257Z,2.80
2023-03-15T17:48:11.917Z,3.27
2023-03-15T17:50:41.651Z,3.63
2023-03-15T17:53:18.052Z,4.20
2023-03-15T17:55:48.005Z,3.40
2023-03-15T17:58:22.178Z,3.60
2023-03-15T18:00:54.964Z,3.30
2023-03-15T18:03:24.216Z,3.10
2023-03-15T18:05:51.804Z,2.63
2023-03-15T18:08:21.536Z,3.33
2023-03-15T18:10:51.372Z,3.77
2023-03-15T18:13:21.761Z,3.57
2023-03-15T18:15:50.572Z,3.63
2023-03-15T18:18:19.078Z,3.20
2023-03-15T18:20:47.395Z,2.90
2023-03-15T18:23:17.004Z,2.70
2023-03-15T18:25:45.086Z,2.80
2023-03-15T18:28:12.785Z,2.70
2023-03-15T18:30:40.920Z,2.47
2023-03-15T18:33:08.400Z,2.53
2023-03-15T18:35:37.455Z,2.57
2023-03-15T18:38:05.753Z,2.53
2023-03-15T18:40:34.939Z,2.57
2023-03-15T18:43:04.339Z,2.40
2023-03-15T18:45:34.972Z,3.33
2023-03-15T18:48:02.777Z,3.30
2023-03-15T18:50:31.090Z,3.80
2023-03-15T18:52:58.903Z,4.60
2023-03-15T18:55:27.043Z,6.00
2023-03-15T18:57:56.154Z,5.30
2023-03-15T19:00:31.706Z,6.27
2023-03-15T19:03:01.713Z,5.60
2023-03-15T19:05:32.533Z,6.33
2023-03-15T19:08:00.157Z,6.67
2023-03-15T19:10:27.818Z,6.37
2023-03-15T19:12:55.621Z,6.00
2023-03-15T19:15:23.866Z,6.47
2023-03-15T19:17:54.670Z,5.73
2023-03-15T19:20:23.067Z,5.97
2023-03-15T19:22:52.132Z,6.57
2023-03-15T19:25:20.511Z,6.80
2023-03-15T19:27:48.157Z,7.33
2023-03-15T19:30:22.296Z,7.30
2023-03-15T19:32:50.814Z,7.97
2023-03-15T19:35:20.075Z,7.53
2023-03-15T19:37:48.847Z,7.70
2023-03-15T19:40:17.278Z,8.53
2023-03-15T19:42:45.430Z,8.40
2023-03-15T19:45:13.781Z,7.67
2023-03-15T19:47:41.668Z,8.87
2023-03-15T19:50:11.697Z,7.90
2023-03-15T19:52:45.985Z,8.37
2023-03-15T19:55:19.595Z,7.80
2023-03-15T19:57:47.787Z,7.90
2023-03-15T20:00:17.296Z,7.63
2023-03-15T20:02:45.702Z,7.73
2023-03-15T20:05:16.989Z,7.23
2023-03-15T20:07:44.895Z,7.17
2023-03-15T20:10:13.900Z,7.47
2023-03-15T20:12:42.871Z,6.80
2023-03-15T20:15:16.968Z,7.70
2023-03-15T20:17:44.944Z,6.73
2023-03-15T20:20:13.975Z,5.87
2023-03-15T20:22:43.937Z,6.10
2023-03-15T20:25:18.163Z,5.87
2023-03-15T20:27:45.806Z,5.80
2023-03-15T20:30:15.615Z,5.43
2023-03-15T20:32:43.757Z,5.37
2023-03-15T20:35:12.379Z,6.43
2023-03-15T20:37:41.763Z,6.50
2023-03-15T20:40:14.927Z,6.90
2023-03-15T20:42:43.214Z,6.27
2023-03-15T20:45:13.018Z,6.40
2023-03-15T20:47:41.400Z,6.67
2023-03-15T20:50:11.273Z,6.90
2023-03-15T20:52:39.026Z,6.73
2023-03-15T20:55:08.158Z,6.33
2023-03-15T20:57:36.721Z,6.43
2023-03-15T21:00:18.278Z,6.03
2023-03-15T21:02:48.034Z,6.17
2023-03-15T21:05:16.512Z,6.57
2023-03-15T21:07:45.256Z,6.37
2023-03-15T21:10:16.434Z,6.87
2023-03-15T21:12:44.486Z,6.47
2023-03-15T21:15:17.620Z,6.33
2023-03-15T21:17:49.319Z,6.53
2023-03-15T21:20:18.404Z,6.43
2023-03-15T21:22:45.997Z,6.37
2023-03-15T21:25:13.564Z,6.30
2023-03-15T21:27:41.384Z,6.23
2023-03-15T21:30:10.877Z,5.80
2023-03-15T21:32:38.519Z,5.80
2023-03-15T21:35:07.188Z,5.83
2023-03-15T21:37:34.844Z,5.60
2023-03-15T21:40:03.874Z,5.53
2023-03-15T21:42:31.285Z,5.80
2023-03-15T21:44:58.811Z,5.93
2023-03-15T21:47:26.252Z,5.67
2023-03-15T21:49:54.350Z,5.80
2023-03-15T21:52:23.049Z,5.70
2023-03-15T21:54:50.552Z,5.50
2023-03-15T21:57:18.110Z,5.33
2023-03-15T21:59:45.565Z,6.40
2023-03-15T22:02:14.411Z,5.90
2023-03-15T22:04:42.150Z,5.90
2023-03-15T22:07:11.259Z,6.03
2023-03-15T22:09:39.217Z,7.03
2023-03-15T22:12:07.524Z,6.63
2023-03-15T22:14:35.182Z,6.83
2023-03-15T22:17:05.141Z,6.17
2023-03-15T22:19:33.086Z,7.00
2023-03-15T22:22:01.159Z,6.77
2023-03-15T22:24:28.669Z,6.57
2023-03-15T22:26:56.353Z,6.07
2023-03-15T22:29:23.794Z,6.30
2023-03-15T22:31:51.815Z,7.20
2023-03-15T22:34:19.763Z,6.90
2023-03-15T22:36:47.200Z,7.00
2023-03-15T22:39:14.683Z,7.47
2023-03-15T22:41:42.134Z,6.77
2023-03-15T22:44:09.734Z,7.13
2023-03-15T22:46:37.249Z,7.10
2023-03-15T22:49:04.737Z,7.60
2023-03-15T22:51:32.306Z,6.90
2023-03-15T22:53:59.759Z,7.40
2023-03-15T22:56:27.193Z,7.33
2023-03-15T22:58:55.779Z,7.43
2023-03-15T23:01:23.549Z,7.57
2023-03-15T23:03:51.500Z,7.07
2023-03-15T23:06:20.195Z,7.03
2023-03-15T23:08:47.828Z,6.87
2023-03-15T23:11:15.343Z,6.03
2023-03-15T23:13:42.871Z,6.40
2023-03-15T23:16:10.528Z,6.17
2023-03-15T23:18:38.022Z,6.30
2023-03-15T23:21:12.526Z,6.47
2023-03-15T23:23:42.840Z,6.90
2023-03-15T23:26:12.976Z,6.20
2023-03-15T23:28:40.419Z,6.40
2023-03-15T23:31:08.239Z,6.33
2023-03-15T23:33:35.971Z,6.43
2023-03-15T23:36:07.065Z,6.00
2023-03-15T23:38:37.378Z,6.50
2023-03-15T23:41:05.232Z,7.10
2023-03-15T23:43:34.001Z,7.17
2023-03-15T23:46:05.003Z,7.97
2023-03-15T23:48:35.782Z,7.30
2023-03-15T23:51:03.750Z,7.40
2023-03-15T23:53:32.138Z,7.37
2023-03-15T23:55:59.725Z,7.33
2023-03-15T23:58:27.277Z,7.00
